Terminal Aerodrome Forecast
Issued by NWS Twin Cities, MN

Home | Current Version | Previous Version | Text Only | Print | Product List | Glossary Off
Versions: 1 2 3 4 5 6 7 8 9 10 11 12 13 14

000
FTUS43 KMPX 282340
TAFEAU
TAF
KEAU 282340Z 2900/2924 20007KT P6SM VCSH SCT030 BKN045
     FM290500 25008KT P6SM SKC
     FM291400 27015G25KT P6SM SKC
     FM291600 27021G30KT P6SM SKC=

USA.gov is the U.S. government's official web portal to all federal, state and local government web resources and services.